MSC Bettina — HPFG — position and weather

sailwx.info

Track history (hours):
 
Tides and Currents Weather Stations Pressure Air Temp Water Temp Dewpoint Dewpoint Depression Visibility Wind Speed Wind Dir Waves Ship Positions

MSC Bettina

Last reported at 2017-Nov-17 05:39 UTC. Time now 2017-Nov-24 13:07 UTC.
Position N 01°21' E 103°15'.

Length 366 m; draft 14.7 m.

Type: Ship (hazmat cat A). MMSI: 352361000.

Date/timePositionNaut miles runAvg speedWind from/ knotsBaromVisibWave heightAir tempDewpointWater temp
2017-Nov-17 05:39N 01°21' E 103°15'418.6
2017-Nov-17 05:26N 01°19' E 103°18'818.3
2017-Nov-17 05:00N 01°15' E 103°25'816.3
2017-Nov-17 04:30N 01°13' E 103°33'510.8
2017-Nov-17 04:00N 01°11' E 103°38'3 6.8
2017-Nov-17 03:30N 01°13' E 103°41'5 9.7
2017-Nov-17 03:00N 01°16' E 103°45'1 1.9
2017-Nov-17 02:30N 01°16' E 103°46'0 0.0
2017-Nov-17 01:56N 01°16' E 103°46'0 0.0
2017-Nov-17 01:29N 01°16' E 103°46'0 0.0
2017-Nov-17 00:59N 01°16' E 103°46'0 0.0
2017-Nov-17 00:29N 01°16' E 103°46'0 0.0
2017-Nov-16 23:59N 01°16' E 103°46'0 0.0
2017-Nov-16 23:29N 01°16' E 103°46'0 0.0
2017-Nov-16 22:56N 01°16' E 103°46'0 0.0
2017-Nov-16 22:26N 01°16' E 103°46'0 0.0
2017-Nov-16 21:56N 01°16' E 103°46'0 0.0
2017-Nov-16 21:29N 01°16' E 103°46'0 0.0
2017-Nov-16 20:56N 01°16' E 103°46'0 0.0
2017-Nov-16 20:29N 01°16' E 103°46'0 0.0
2017-Nov-16 19:53N 01°16' E 103°46'0 0.0
2017-Nov-16 19:26N 01°16' E 103°46'0 0.0
2017-Nov-16 18:56N 01°16' E 103°46'0 0.0
2017-Nov-16 18:29N 01°16' E 103°46'0 0.0
2017-Nov-16 17:59N 01°16' E 103°46'0 0.0
2017-Nov-16 17:26N 01°16' E 103°46'0 0.0
2017-Nov-16 16:59N 01°16' E 103°46'0 0.0
2017-Nov-16 16:29N 01°16' E 103°46'0 0.0
2017-Nov-16 15:59N 01°16' E 103°46'0 0.0
2017-Nov-16 15:29N 01°16' E 103°46'0 0.0
2017-Nov-16 14:59N 01°16' E 103°46'0 0.0
2017-Nov-16 14:29N 01°16' E 103°46'0 0.0
2017-Nov-16 13:53N 01°16' E 103°46'0 0.0
2017-Nov-16 13:23N 01°16' E 103°46'0 0.0
2017-Nov-16 12:56N 01°16' E 103°46'0 0.0
2017-Nov-16 12:29N 01°16' E 103°46'0 0.0
2017-Nov-16 11:59N 01°16' E 103°46'0 0.0
2017-Nov-16 11:29N 01°16' E 103°46'0 0.0
2017-Nov-16 10:56N 01°16' E 103°46'0 0.0
2017-Nov-16 10:29N 01°16' E 103°46'0 0.0
2017-Nov-16 09:56N 01°16' E 103°46'0 0.0
2017-Nov-16 09:29N 01°16' E 103°46'0 0.0
2017-Nov-16 08:59N 01°16' E 103°46'0 0.0
2017-Nov-16 08:29N 01°16' E 103°46'0 0.0
2017-Nov-16 07:56N 01°16' E 103°46'0 0.0
2017-Nov-16 07:29N 01°16' E 103°46'0 0.0
2017-Nov-16 06:59N 01°16' E 103°46'0 0.0
2017-Nov-16 06:26N 01°16' E 103°46'0 0.0
2017-Nov-16 05:59N 01°16' E 103°46'0 0.0
2017-Nov-16 05:26N 01°16' E 103°46'0 0.0
2017-Nov-16 04:56N 01°16' E 103°46'0 0.0
2017-Nov-16 04:29N 01°16' E 103°46'0 0.0
2017-Nov-16 03:56N 01°16' E 103°46'0 0.0
2017-Nov-16 03:29N 01°16' E 103°46'0 0.0
2017-Nov-16 02:59N 01°16' E 103°46'0 0.0
2017-Nov-16 02:29N 01°16' E 103°46'0 0.0
2017-Nov-16 01:59N 01°16' E 103°46'0 0.0
2017-Nov-16 01:29N 01°16' E 103°46'0 0.0
2017-Nov-16 01:00N 01°16' E 103°46'0 0.5
2017-Nov-16 00:31N 01°16' E 103°46'1 2.5
2017-Nov-16 00:00N 01°15' E 103°46'4 7.3
2017-Nov-15 23:30N 01°13' E 103°49'510.6
2017-Nov-15 23:00N 01°14' E 103°54'5 9.3
2017-Nov-15 22:30N 01°15' E 103°58'5 9.9
2017-Nov-15 22:00N 01°16' E 104°03'5 9.3
2017-Nov-15 21:30N 01°16' E 104°08'5 9.6
2017-Nov-15 21:00N 01°17' E 104°13'  
2017-Nov-12 14:37N 21°45' E 114°32'219.1
2017-Nov-12 14:30N 21°47' E 114°32'1019.1
2017-Nov-12 14:00N 21°57' E 114°30'1019.2
2017-Nov-12 13:30N 22°06' E 114°32'919.1
2017-Nov-12 13:00N 22°16' E 114°32'918.0
2017-Nov-12 12:30N 22°24' E 114°29'612.5
2017-Nov-12 12:00N 22°30' E 114°25'510.4
2017-Nov-12 11:30N 22°33' E 114°21'3 6.9
2017-Nov-12 11:00N 22°34' E 114°17'0 0.4
2017-Nov-12 10:27N 22°34' E 114°17'0 0.0
2017-Nov-12 09:56N 22°34' E 114°17'0 0.0
2017-Nov-12 09:29N 22°34' E 114°17'0 0.0
2017-Nov-12 09:00N 22°34' E 114°17'0 0.0
2017-Nov-12 08:28N 22°34' E 114°17'0 0.0
2017-Nov-12 07:58N 22°34' E 114°17'0 0.0
2017-Nov-12 07:28N 22°34' E 114°17'0 0.0
2017-Nov-12 06:58N 22°34' E 114°17'0 0.0
2017-Nov-12 06:28N 22°34' E 114°17'0 0.0
2017-Nov-12 05:58N 22°34' E 114°17'0 0.0
2017-Nov-12 05:28N 22°34' E 114°17'0 0.0
2017-Nov-12 04:58N 22°34' E 114°17'0 0.0
2017-Nov-12 04:28N 22°34' E 114°17'0 0.0
2017-Nov-12 03:58N 22°34' E 114°17'0 0.0
2017-Nov-12 03:28N 22°34' E 114°17'0 0.0
2017-Nov-12 02:58N 22°34' E 114°17'0 0.0
2017-Nov-12 02:25N 22°34' E 114°17'0 0.0
2017-Nov-12 01:58N 22°34' E 114°17'0 0.0
2017-Nov-12 01:28N 22°34' E 114°17'0 0.0
2017-Nov-12 00:58N 22°34' E 114°17'0 0.0
2017-Nov-12 00:28N 22°34' E 114°17'0 0.0
2017-Nov-11 23:58N 22°34' E 114°17'0 0.0
2017-Nov-11 23:28N 22°34' E 114°17'0 0.0
2017-Nov-11 22:58N 22°34' E 114°17'0 0.0
2017-Nov-11 22:28N 22°34' E 114°17'0 0.0
2017-Nov-11 21:58N 22°34' E 114°17'0 0.0
2017-Nov-11 21:28N 22°34' E 114°17'0 0.0
2017-Nov-11 20:58N 22°34' E 114°17'0 0.0
2017-Nov-11 20:28N 22°34' E 114°17'0 0.0
2017-Nov-11 19:58N 22°34' E 114°17'0 0.0
2017-Nov-11 19:28N 22°34' E 114°17'0 0.0
2017-Nov-11 18:58N 22°34' E 114°17'0 0.0
2017-Nov-11 18:28N 22°34' E 114°17'0 0.0
2017-Nov-11 17:58N 22°34' E 114°17'0 0.8
2017-Nov-11 17:30N 22°34' E 114°18'4 8.1
2017-Nov-11 17:00N 22°33' E 114°22'612.2
2017-Nov-11 16:30N 22°29' E 114°27'4 8.3
2017-Nov-11 16:00N 22°25' E 114°28'3 5.0
2017-Nov-11 15:30N 22°22' E 114°27'4 8.0
2017-Nov-11 15:00N 22°19' E 114°27'510.0
2017-Nov-11 14:30N 22°14' E 114°26'5 9.5
2017-Nov-11 14:00N 22°09' E 114°24'511.0
2017-Nov-11 13:31N 22°06' E 114°19'611.0
2017-Nov-11 13:00N 22°07' E 114°13'5 8.9
2017-Nov-11 12:29N 22°11' E 114°11'4 8.3
2017-Nov-11 12:00N 22°14' E 114°08'10 9.0
2017-Nov-11 10:56N 22°21' E 114°01'512.6
2017-Nov-11 10:30N 22°21' E 113°55'4 8.9
2017-Nov-11 10:00N 22°25' E 113°53'2 4.5
2017-Nov-11 09:29N 22°28' E 113°53'0 0.2
2017-Nov-11 08:59N 22°28' E 113°53'0 0.0
2017-Nov-11 08:29N 22°28' E 113°53'0 0.0
2017-Nov-11 07:59N 22°28' E 113°53'0 0.0
2017-Nov-11 07:29N 22°28' E 113°53'0 0.0
2017-Nov-11 06:58N 22°28' E 113°53'0 0.0
2017-Nov-11 06:28N 22°28' E 113°53'0 0.0
2017-Nov-11 05:58N 22°28' E 113°53'0 0.0
2017-Nov-11 05:28N 22°28' E 113°53'0 0.0
2017-Nov-11 04:58N 22°28' E 113°53'0 0.0
2017-Nov-11 04:28N 22°28' E 113°53'0 0.0
2017-Nov-11 03:58N 22°28' E 113°53'0 0.0
2017-Nov-11 03:28N 22°28' E 113°53'0 0.0
2017-Nov-11 02:58N 22°28' E 113°53'0 0.0
2017-Nov-11 02:28N 22°28' E 113°53'0 0.0
2017-Nov-11 01:58N 22°28' E 113°53'0 0.0
2017-Nov-11 01:28N 22°28' E 113°53'0 0.0
2017-Nov-11 00:58N 22°28' E 113°53'0 0.0
2017-Nov-11 00:28N 22°28' E 113°53'0 0.0
2017-Nov-11 00:00N 22°28' E 113°53'1 2.3
2017-Nov-10 23:30N 22°27' E 113°53'3 6.8
2017-Nov-10 23:00N 22°23' E 113°54'611.5
2017-Nov-10 22:30N 22°21' E 113°59'6 9.6
2017-Nov-10 21:55N 22°19' E 114°05'512.6
2017-Nov-10 21:30N 22°15' E 114°08'5 8.4
2017-Nov-10 20:53N 22°11' E 114°12'8 9.7
2017-Nov-10 20:05N 22°08' E 114°19'211.5
2017-Nov-10 19:55N 22°08' E 114°21'410.6
2017-Nov-10 19:30N 22°08' E 114°26'5 9.7
2017-Nov-10 19:00N 22°09' E 114°31'510.0
2017-Nov-10 18:30N 22°09' E 114°37'510.2
2017-Nov-10 18:00N 22°10' E 114°42'5 9.7
2017-Nov-10 17:30N 22°10' E 114°47'5 9.7
2017-Nov-10 17:00N 22°11' E 114°52'510.2
2017-Nov-10 16:30N 22°12' E 114°58'510.3
2017-Nov-10 16:00N 22°12' E 115°03'5 9.9
2017-Nov-10 15:29N 22°13' E 115°09'5 9.7
2017-Nov-10 15:00N 22°13' E 115°14'5 9.7
2017-Nov-10 14:30N 22°14' E 115°19'510.0
2017-Nov-10 13:59N 22°15' E 115°25'510.1
2017-Nov-10 13:30N 22°15' E 115°30'1435360.3
2017-Nov-10 09:31N 01°15' E 103°49'0 0.1
2017-Nov-10 09:30N 01°15' E 103°49'  
Track history (hours):
 
Tides and Currents Weather Stations Pressure Air Temp Water Temp Dewpoint Dewpoint Depression Visibility Wind Speed Wind Dir Waves Ship Positions

MSC Bettina

Last reported at 2017-Nov-17 05:39 UTC. Time now 2017-Nov-24 13:07 UTC.
Position N 01°21' E 103°15'.

Length 366 m; draft 14.7 m.

Type: Ship (hazmat cat A). MMSI: 352361000.

Date/timePositionNaut miles runAvg speedWind from/ knotsBaromVisibWave heightAir tempDewpointWater temp
2017-Nov-17 05:39N 01°21' E 103°15'418.6
2017-Nov-17 05:26N 01°19' E 103°18'818.3
2017-Nov-17 05:00N 01°15' E 103°25'816.3
2017-Nov-17 04:30N 01°13' E 103°33'510.8
2017-Nov-17 04:00N 01°11' E 103°38'3 6.8
2017-Nov-17 03:30N 01°13' E 103°41'5 9.7
2017-Nov-17 03:00N 01°16' E 103°45'1 1.9
2017-Nov-17 02:30N 01°16' E 103°46'0 0.0
2017-Nov-17 01:56N 01°16' E 103°46'0 0.0
2017-Nov-17 01:29N 01°16' E 103°46'0 0.0
2017-Nov-17 00:59N 01°16' E 103°46'0 0.0
2017-Nov-17 00:29N 01°16' E 103°46'0 0.0
2017-Nov-16 23:59N 01°16' E 103°46'0 0.0
2017-Nov-16 23:29N 01°16' E 103°46'0 0.0
2017-Nov-16 22:56N 01°16' E 103°46'0 0.0
2017-Nov-16 22:26N 01°16' E 103°46'0 0.0
2017-Nov-16 21:56N 01°16' E 103°46'0 0.0
2017-Nov-16 21:29N 01°16' E 103°46'0 0.0
2017-Nov-16 20:56N 01°16' E 103°46'0 0.0
2017-Nov-16 20:29N 01°16' E 103°46'0 0.0
2017-Nov-16 19:53N 01°16' E 103°46'0 0.0
2017-Nov-16 19:26N 01°16' E 103°46'0 0.0
2017-Nov-16 18:56N 01°16' E 103°46'0 0.0
2017-Nov-16 18:29N 01°16' E 103°46'0 0.0
2017-Nov-16 17:59N 01°16' E 103°46'0 0.0
2017-Nov-16 17:26N 01°16' E 103°46'0 0.0
2017-Nov-16 16:59N 01°16' E 103°46'0 0.0
2017-Nov-16 16:29N 01°16' E 103°46'0 0.0
2017-Nov-16 15:59N 01°16' E 103°46'0 0.0
2017-Nov-16 15:29N 01°16' E 103°46'0 0.0
2017-Nov-16 14:59N 01°16' E 103°46'0 0.0
2017-Nov-16 14:29N 01°16' E 103°46'0 0.0
2017-Nov-16 13:53N 01°16' E 103°46'0 0.0
2017-Nov-16 13:23N 01°16' E 103°46'0 0.0
2017-Nov-16 12:56N 01°16' E 103°46'0 0.0
2017-Nov-16 12:29N 01°16' E 103°46'0 0.0
2017-Nov-16 11:59N 01°16' E 103°46'0 0.0
2017-Nov-16 11:29N 01°16' E 103°46'0 0.0
2017-Nov-16 10:56N 01°16' E 103°46'0 0.0
2017-Nov-16 10:29N 01°16' E 103°46'0 0.0
2017-Nov-16 09:56N 01°16' E 103°46'0 0.0
2017-Nov-16 09:29N 01°16' E 103°46'0 0.0
2017-Nov-16 08:59N 01°16' E 103°46'0 0.0
2017-Nov-16 08:29N 01°16' E 103°46'0 0.0
2017-Nov-16 07:56N 01°16' E 103°46'0 0.0
2017-Nov-16 07:29N 01°16' E 103°46'0 0.0
2017-Nov-16 06:59N 01°16' E 103°46'0 0.0
2017-Nov-16 06:26N 01°16' E 103°46'0 0.0
2017-Nov-16 05:59N 01°16' E 103°46'0 0.0
2017-Nov-16 05:26N 01°16' E 103°46'0 0.0
2017-Nov-16 04:56N 01°16' E 103°46'0 0.0
2017-Nov-16 04:29N 01°16' E 103°46'0 0.0
2017-Nov-16 03:56N 01°16' E 103°46'0 0.0
2017-Nov-16 03:29N 01°16' E 103°46'0 0.0
2017-Nov-16 02:59N 01°16' E 103°46'0 0.0
2017-Nov-16 02:29N 01°16' E 103°46'0 0.0
2017-Nov-16 01:59N 01°16' E 103°46'0 0.0
2017-Nov-16 01:29N 01°16' E 103°46'0 0.0
2017-Nov-16 01:00N 01°16' E 103°46'0 0.5
2017-Nov-16 00:31N 01°16' E 103°46'1 2.5
2017-Nov-16 00:00N 01°15' E 103°46'4 7.3
2017-Nov-15 23:30N 01°13' E 103°49'510.6
2017-Nov-15 23:00N 01°14' E 103°54'5 9.3
2017-Nov-15 22:30N 01°15' E 103°58'5 9.9
2017-Nov-15 22:00N 01°16' E 104°03'5 9.3
2017-Nov-15 21:30N 01°16' E 104°08'5 9.6
2017-Nov-15 21:00N 01°17' E 104°13'  
2017-Nov-12 14:37N 21°45' E 114°32'219.1
2017-Nov-12 14:30N 21°47' E 114°32'1019.1
2017-Nov-12 14:00N 21°57' E 114°30'1019.2
2017-Nov-12 13:30N 22°06' E 114°32'919.1
2017-Nov-12 13:00N 22°16' E 114°32'918.0
2017-Nov-12 12:30N 22°24' E 114°29'612.5
2017-Nov-12 12:00N 22°30' E 114°25'510.4
2017-Nov-12 11:30N 22°33' E 114°21'3 6.9
2017-Nov-12 11:00N 22°34' E 114°17'0 0.4
2017-Nov-12 10:27N 22°34' E 114°17'0 0.0
2017-Nov-12 09:56N 22°34' E 114°17'0 0.0
2017-Nov-12 09:29N 22°34' E 114°17'0 0.0
2017-Nov-12 09:00N 22°34' E 114°17'0 0.0
2017-Nov-12 08:28N 22°34' E 114°17'0 0.0
2017-Nov-12 07:58N 22°34' E 114°17'0 0.0
2017-Nov-12 07:28N 22°34' E 114°17'0 0.0
2017-Nov-12 06:58N 22°34' E 114°17'0 0.0
2017-Nov-12 06:28N 22°34' E 114°17'0 0.0
2017-Nov-12 05:58N 22°34' E 114°17'0 0.0
2017-Nov-12 05:28N 22°34' E 114°17'0 0.0
2017-Nov-12 04:58N 22°34' E 114°17'0 0.0
2017-Nov-12 04:28N 22°34' E 114°17'0 0.0
2017-Nov-12 03:58N 22°34' E 114°17'0 0.0
2017-Nov-12 03:28N 22°34' E 114°17'0 0.0
2017-Nov-12 02:58N 22°34' E 114°17'0 0.0
2017-Nov-12 02:25N 22°34' E 114°17'0 0.0
2017-Nov-12 01:58N 22°34' E 114°17'0 0.0
2017-Nov-12 01:28N 22°34' E 114°17'0 0.0
2017-Nov-12 00:58N 22°34' E 114°17'0 0.0
2017-Nov-12 00:28N 22°34' E 114°17'0 0.0
2017-Nov-11 23:58N 22°34' E 114°17'0 0.0
2017-Nov-11 23:28N 22°34' E 114°17'0 0.0
2017-Nov-11 22:58N 22°34' E 114°17'0 0.0
2017-Nov-11 22:28N 22°34' E 114°17'0 0.0
2017-Nov-11 21:58N 22°34' E 114°17'0 0.0
2017-Nov-11 21:28N 22°34' E 114°17'0 0.0
2017-Nov-11 20:58N 22°34' E 114°17'0 0.0
2017-Nov-11 20:28N 22°34' E 114°17'0 0.0
2017-Nov-11 19:58N 22°34' E 114°17'0 0.0
2017-Nov-11 19:28N 22°34' E 114°17'0 0.0
2017-Nov-11 18:58N 22°34' E 114°17'0 0.0
2017-Nov-11 18:28N 22°34' E 114°17'0 0.0
2017-Nov-11 17:58N 22°34' E 114°17'0 0.8
2017-Nov-11 17:30N 22°34' E 114°18'4 8.1
2017-Nov-11 17:00N 22°33' E 114°22'612.2
2017-Nov-11 16:30N 22°29' E 114°27'4 8.3
2017-Nov-11 16:00N 22°25' E 114°28'3 5.0
2017-Nov-11 15:30N 22°22' E 114°27'4 8.0
2017-Nov-11 15:00N 22°19' E 114°27'510.0
2017-Nov-11 14:30N 22°14' E 114°26'5 9.5
2017-Nov-11 14:00N 22°09' E 114°24'511.0
2017-Nov-11 13:31N 22°06' E 114°19'611.0
2017-Nov-11 13:00N 22°07' E 114°13'5 8.9
2017-Nov-11 12:29N 22°11' E 114°11'4 8.3
2017-Nov-11 12:00N 22°14' E 114°08'10 9.0
2017-Nov-11 10:56N 22°21' E 114°01'512.6
2017-Nov-11 10:30N 22°21' E 113°55'4 8.9
2017-Nov-11 10:00N 22°25' E 113°53'2 4.5
2017-Nov-11 09:29N 22°28' E 113°53'0 0.2
2017-Nov-11 08:59N 22°28' E 113°53'0 0.0
2017-Nov-11 08:29N 22°28' E 113°53'0 0.0
2017-Nov-11 07:59N 22°28' E 113°53'0 0.0
2017-Nov-11 07:29N 22°28' E 113°53'0 0.0
2017-Nov-11 06:58N 22°28' E 113°53'0 0.0
2017-Nov-11 06:28N 22°28' E 113°53'0 0.0
2017-Nov-11 05:58N 22°28' E 113°53'0 0.0
2017-Nov-11 05:28N 22°28' E 113°53'0 0.0
2017-Nov-11 04:58N 22°28' E 113°53'0 0.0
2017-Nov-11 04:28N 22°28' E 113°53'0 0.0
2017-Nov-11 03:58N 22°28' E 113°53'0 0.0
2017-Nov-11 03:28N 22°28' E 113°53'0 0.0
2017-Nov-11 02:58N 22°28' E 113°53'0 0.0
2017-Nov-11 02:28N 22°28' E 113°53'0 0.0
2017-Nov-11 01:58N 22°28' E 113°53'0 0.0
2017-Nov-11 01:28N 22°28' E 113°53'0 0.0
2017-Nov-11 00:58N 22°28' E 113°53'0 0.0
2017-Nov-11 00:28N 22°28' E 113°53'0 0.0
2017-Nov-11 00:00N 22°28' E 113°53'1 2.3
2017-Nov-10 23:30N 22°27' E 113°53'3 6.8
2017-Nov-10 23:00N 22°23' E 113°54'611.5
2017-Nov-10 22:30N 22°21' E 113°59'6 9.6
2017-Nov-10 21:55N 22°19' E 114°05'512.6
2017-Nov-10 21:30N 22°15' E 114°08'5 8.4
2017-Nov-10 20:53N 22°11' E 114°12'8 9.7
2017-Nov-10 20:05N 22°08' E 114°19'211.5
2017-Nov-10 19:55N 22°08' E 114°21'410.6
2017-Nov-10 19:30N 22°08' E 114°26'5 9.7
2017-Nov-10 19:00N 22°09' E 114°31'510.0
2017-Nov-10 18:30N 22°09' E 114°37'510.2
2017-Nov-10 18:00N 22°10' E 114°42'5 9.7
2017-Nov-10 17:30N 22°10' E 114°47'5 9.7
2017-Nov-10 17:00N 22°11' E 114°52'510.2
2017-Nov-10 16:30N 22°12' E 114°58'510.3
2017-Nov-10 16:00N 22°12' E 115°03'5 9.9
2017-Nov-10 15:29N 22°13' E 115°09'5 9.7
2017-Nov-10 15:00N 22°13' E 115°14'5 9.7
2017-Nov-10 14:30N 22°14' E 115°19'510.0
2017-Nov-10 13:59N 22°15' E 115°25'510.1
2017-Nov-10 13:30N 22°15' E 115°30'1435360.3
2017-Nov-10 09:31N 01°15' E 103°49'0 0.1
2017-Nov-10 09:30N 01°15' E 103°49'  

Dump ship's entire track history